Time;durP1;ratioP1;P1;durP2;ratioP2;P2;SDS_P1;SDS_P2;PMS_P1;PMS_P2;Temp;Humidity;BMP_temperature;BMP_pressure;BME280_temperature;BME280_humidity;BME280_pressure;Samples;Min_cycle;Max_cycle;Signal;HPM_P1;HPM_P2
2021/07/18 00:00:06;;;;;;;;;;;19.20;99.90;;;;;;5011314;28;19996;-67
2021/07/18 00:02:37;;;;;;;;;;;19.10;99.90;;;;;;5011196;28;20365;-67
2021/07/18 00:05:02;;;;;;;;;;;19.10;99.90;;;;;;5022227;28;20266;-67
2021/07/18 00:07:34;;;;;;;;;;;19.10;99.90;;;;;;5014202;28;19913;-67
2021/07/18 00:09:59;;;;;;;;;;;19.00;99.90;;;;;;5033088;28;20281;-68
2021/07/18 00:12:27;;;;;;;;;;;19.00;99.90;;;;;;5029062;28;20029;-67
2021/07/18 00:14:55;;;;;;;;;;;19.00;99.90;;;;;;5012925;28;20282;-67
2021/07/18 00:17:20;;;;;;;;;;;19.00;99.90;;;;;;5013368;28;19988;-67
2021/07/18 00:19:46;;;;;;;;;;;19.00;99.90;;;;;;5026596;28;19967;-67
2021/07/18 00:22:17;;;;;;;;;;;19.00;99.90;;;;;;5016951;28;20416;-68
2021/07/18 00:24:44;;;;;;;;;;;19.00;99.90;;;;;;5014113;28;19922;-67
2021/07/18 00:27:12;;;;;;;;;;;19.00;99.90;;;;;;5013838;28;19999;-67
2021/07/18 00:29:44;;;;;;;;;;;18.90;99.90;;;;;;5025868;28;19910;-67
2021/07/18 00:32:09;;;;;;;;;;;18.90;99.90;;;;;;5012838;28;19989;-67
2021/07/18 00:34:34;;;;;;;;;;;18.90;99.90;;;;;;5012456;28;19970;-67
2021/07/18 00:37:00;;;;;;;;;;;18.90;99.90;;;;;;5012980;28;19932;-67
2021/07/18 00:39:25;;;;;;;;;;;18.80;99.90;;;;;;4998720;28;19936;-67
2021/07/18 00:41:53;;;;;;;;;;;18.80;99.90;;;;;;5018335;28;19913;-67
2021/07/18 00:44:21;;;;;;;;;;;18.70;99.90;;;;;;5016642;28;19959;-68
2021/07/18 00:46:49;;;;;;;;;;;18.80;99.90;;;;;;5012873;28;19905;-67
2021/07/18 00:49:14;;;;;;;;;;;18.70;99.90;;;;;;5013099;28;19913;-67
2021/07/18 00:51:40;;;;;;;;;;;18.80;99.90;;;;;;5012699;28;19912;-67
2021/07/18 00:54:08;;;;;;;;;;;18.80;99.90;;;;;;5012967;28;19909;-68
2021/07/18 00:56:34;;;;;;;;;;;18.70;99.90;;;;;;5012429;28;19905;-68
2021/07/18 00:59:02;;;;;;;;;;;18.80;99.90;;;;;;5030982;28;19920;-67
2021/07/18 01:01:28;;;;;;;;;;;18.80;99.90;;;;;;5014264;28;19912;-68
2021/07/18 01:04:01;;;;;;;;;;;18.70;99.90;;;;;;5016343;28;19970;-70
2021/07/18 01:06:28;;;;;;;;;;;18.70;99.90;;;;;;5012243;28;20305;-70
2021/07/18 01:08:54;;;;;;;;;;;18.70;99.90;;;;;;5025760;28;19909;-70
2021/07/18 01:11:19;;;;;;;;;;;18.80;99.90;;;;;;5031501;28;19909;-70
2021/07/18 01:13:45;;;;;;;;;;;18.80;99.90;;;;;;5014498;28;19909;-67
2021/07/18 01:16:13;;;;;;;;;;;18.70;99.90;;;;;;4997439;28;19909;-67
2021/07/18 01:18:40;;;;;;;;;;;18.70;99.90;;;;;;5015328;28;19909;-67
2021/07/18 01:21:06;;;;;;;;;;;18.60;99.90;;;;;;5013868;28;19931;-67
2021/07/18 01:23:36;;;;;;;;;;;18.60;99.90;;;;;;5011567;28;19985;-68
2021/07/18 01:26:02;;;;;;;;;;;18.60;99.90;;;;;;5023509;28;19950;-67
2021/07/18 01:28:27;;;;;;;;;;;18.60;99.90;;;;;;5031742;28;19905;-67
2021/07/18 01:30:53;;;;;;;;;;;18.50;99.90;;;;;;5023257;28;19909;-67
2021/07/18 01:33:21;;;;;;;;;;;18.60;99.90;;;;;;5012175;28;20309;-67
2021/07/18 01:35:46;;;;;;;;;;;18.50;99.90;;;;;;5031666;28;19999;-68
2021/07/18 01:38:12;;;;;;;;;;;18.50;99.90;;;;;;5031384;28;19951;-67
2021/07/18 01:40:46;;;;;;;;;;;18.50;99.90;;;;;;5028742;28;19913;-67
2021/07/18 01:43:11;;;;;;;;;;;18.50;99.90;;;;;;5027438;28;19909;-68
2021/07/18 01:45:37;;;;;;;;;;;18.50;99.90;;;;;;5031498;28;19909;-68
2021/07/18 01:48:03;;;;;;;;;;;18.50;99.90;;;;;;5026290;28;19909;-67
2021/07/18 01:50:32;;;;;;;;;;;18.50;99.90;;;;;;5013776;28;19905;-67
2021/07/18 01:53:00;;;;;;;;;;;18.50;99.90;;;;;;5031048;28;20000;-67
2021/07/18 01:55:26;;;;;;;;;;;18.50;99.90;;;;;;5031255;28;19905;-67
2021/07/18 01:57:51;;;;;;;;;;;18.50;99.90;;;;;;5017262;28;19909;-67
2021/07/18 02:00:17;;;;;;;;;;;18.40;99.90;;;;;;5011362;28;19936;-68
2021/07/18 02:02:56;;;;;;;;;;;18.40;99.90;;;;;;5011168;28;20058;-67
2021/07/18 02:05:24;;;;;;;;;;;18.40;99.90;;;;;;4999651;28;19905;-68
2021/07/18 02:07:54;;;;;;;;;;;18.40;99.90;;;;;;5018544;28;19951;-67
2021/07/18 02:10:20;;;;;;;;;;;18.40;99.90;;;;;;5030994;28;19912;-67
2021/07/18 02:12:48;;;;;;;;;;;18.40;99.90;;;;;;5030672;28;19907;-68
2021/07/18 02:15:18;;;;;;;;;;;18.40;99.90;;;;;;5018889;28;19921;-68
2021/07/18 02:17:43;;;;;;;;;;;18.40;99.90;;;;;;5011196;28;19913;-67
2021/07/18 02:20:10;;;;;;;;;;;18.30;99.90;;;;;;5011996;28;20282;-68
2021/07/18 02:22:46;;;;;;;;;;;18.30;99.90;;;;;;5016743;28;19959;-67
2021/07/18 02:25:13;;;;;;;;;;;18.20;99.90;;;;;;5017239;28;19947;-67
2021/07/18 02:27:41;;;;;;;;;;;18.20;99.90;;;;;;5011456;28;19913;-68
2021/07/18 02:30:11;;;;;;;;;;;18.20;99.90;;;;;;5010709;28;20004;-68
2021/07/18 02:32:39;;;;;;;;;;;18.20;99.90;;;;;;5011414;28;19915;-70
2021/07/18 02:35:06;;;;;;;;;;;18.20;99.90;;;;;;5011490;28;19921;-67
2021/07/18 02:37:32;;;;;;;;;;;18.20;99.90;;;;;;5021370;28;19952;-70
2021/07/18 02:39:57;;;;;;;;;;;18.20;99.90;;;;;;5020961;28;19983;-69
2021/07/18 02:42:23;;;;;;;;;;;18.20;99.90;;;;;;5024829;28;19912;-70
2021/07/18 02:44:50;;;;;;;;;;;18.20;99.90;;;;;;5014285;28;20329;-70
2021/07/18 02:47:18;;;;;;;;;;;18.20;99.90;;;;;;4992560;28;20016;-70
2021/07/18 02:49:50;;;;;;;;;;;18.30;99.90;;;;;;5010383;28;19909;-70
2021/07/18 02:52:16;;;;;;;;;;;18.20;99.90;;;;;;5010329;28;19909;-70
2021/07/18 02:54:41;;;;;;;;;;;18.20;99.90;;;;;;5012971;28;20254;-70
2021/07/18 02:57:06;;;;;;;;;;;18.20;99.90;;;;;;5017935;28;20300;-69
2021/07/18 02:59:34;;;;;;;;;;;18.20;99.90;;;;;;5010775;28;19920;-70
2021/07/18 03:02:26;;;;;;;;;;;18.20;99.90;;;;;;5010028;28;19909;-70
2021/07/18 03:04:52;;;;;;;;;;;18.20;99.90;;;;;;5009771;28;19935;-69
2021/07/18 03:07:17;;;;;;;;;;;18.20;99.90;;;;;;5009926;28;20008;-70
2021/07/18 03:09:45;;;;;;;;;;;18.20;99.90;;;;;;5011602;28;20429;-70
2021/07/18 03:12:13;;;;;;;;;;;18.20;99.90;;;;;;5011589;28;19954;-68
2021/07/18 03:14:38;;;;;;;;;;;18.20;99.90;;;;;;5020551;28;19909;-69
2021/07/18 03:17:06;;;;;;;;;;;18.20;99.90;;;;;;5029197;28;20388;-68
2021/07/18 03:19:31;;;;;;;;;;;18.20;99.90;;;;;;5017720;28;19909;-68
2021/07/18 03:21:57;;;;;;;;;;;18.10;99.90;;;;;;4991905;28;19909;-68
2021/07/18 03:24:22;;;;;;;;;;;18.20;99.90;;;;;;5009078;28;19963;-68
2021/07/18 03:26:48;;;;;;;;;;;18.10;99.90;;;;;;4992124;28;19996;-68
2021/07/18 03:29:13;;;;;;;;;;;18.10;99.90;;;;;;5010003;28;19992;-68
2021/07/18 03:31:39;;;;;;;;;;;18.10;99.90;;;;;;5004299;28;20009;-68
2021/07/18 03:34:04;;;;;;;;;;;18.00;99.90;;;;;;5009561;28;19959;-68
2021/07/18 03:36:32;;;;;;;;;;;18.10;99.90;;;;;;5011466;28;20011;-68
2021/07/18 03:38:57;;;;;;;;;;;18.10;99.90;;;;;;5029494;28;19905;-68
2021/07/18 03:41:23;;;;;;;;;;;18.10;99.90;;;;;;5028154;28;19913;-68
2021/07/18 03:43:48;;;;;;;;;;;18.10;99.90;;;;;;5011300;28;19948;-68
2021/07/18 03:46:14;;;;;;;;;;;18.10;99.90;;;;;;5028573;28;19921;-68
2021/07/18 03:48:39;;;;;;;;;;;18.10;99.90;;;;;;5027763;28;19913;-68
2021/07/18 03:51:07;;;;;;;;;;;18.10;99.90;;;;;;5008967;28;20328;-68
2021/07/18 03:53:33;;;;;;;;;;;18.10;99.90;;;;;;5009269;28;19905;-68
2021/07/18 03:56:04;;;;;;;;;;;18.10;99.90;;;;;;5018080;28;20203;-68
2021/07/18 03:58:29;;;;;;;;;;;18.20;99.90;;;;;;5049003;28;19920;-68
2021/07/18 04:00:55;;;;;;;;;;;18.20;99.90;;;;;;5041818;28;19905;-68
2021/07/18 04:03:20;;;;;;;;;;;18.10;99.90;;;;;;5028826;28;20019;-68
2021/07/18 04:05:46;;;;;;;;;;;18.10;99.90;;;;;;5024281;28;19940;-68
2021/07/18 04:08:11;;;;;;;;;;;18.10;99.90;;;;;;5024250;28;19913;-68
2021/07/18 04:10:41;;;;;;;;;;;18.10;99.90;;;;;;5029091;28;19905;-68
2021/07/18 04:13:06;;;;;;;;;;;18.10;99.90;;;;;;5009481;28;19905;-68
2021/07/18 04:15:32;;;;;;;;;;;18.20;99.90;;;;;;5009923;28;19992;-68
2021/07/18 04:17:57;;;;;;;;;;;18.20;99.90;;;;;;5009425;28;19951;-68
2021/07/18 04:20:25;;;;;;;;;;;18.20;99.90;;;;;;5027166;28;20326;-68
2021/07/18 04:22:53;;;;;;;;;;;18.20;99.90;;;;;;5009202;28;20343;-68
2021/07/18 04:25:18;;;;;;;;;;;18.30;99.90;;;;;;5028214;28;19952;-69
2021/07/18 04:27:49;;;;;;;;;;;18.30;99.90;;;;;;5028855;28;19913;-68
2021/07/18 04:30:17;;;;;;;;;;;18.40;99.90;;;;;;5025933;28;19905;-68
2021/07/18 04:32:42;;;;;;;;;;;18.40;99.90;;;;;;5010462;28;19940;-68
2021/07/18 04:35:08;;;;;;;;;;;18.40;99.90;;;;;;5010176;28;20314;-68
2021/07/18 04:37:39;;;;;;;;;;;18.40;99.90;;;;;;5010557;28;19905;-68
2021/07/18 04:40:05;;;;;;;;;;;18.40;99.90;;;;;;5024494;28;19913;-68
2021/07/18 04:42:33;;;;;;;;;;;18.40;99.90;;;;;;5041686;23;19967;-66
2021/07/18 04:44:59;;;;;;;;;;;18.50;99.90;;;;;;5048622;28;19908;-66
2021/07/18 04:47:33;;;;;;;;;;;18.50;99.90;;;;;;5049668;28;19924;-66
2021/07/18 04:49:59;;;;;;;;;;;18.50;99.90;;;;;;5049860;28;19908;-66
2021/07/18 04:52:27;;;;;;;;;;;18.50;99.90;;;;;;5018145;28;19909;-66
2021/07/18 04:54:54;;;;;;;;;;;18.50;99.90;;;;;;5018210;28;19924;-66
2021/07/18 04:57:22;;;;;;;;;;;18.60;99.90;;;;;;5053233;28;20004;-66
2021/07/18 04:59:48;;;;;;;;;;;18.60;99.90;;;;;;5031800;28;19909;-65
2021/07/18 05:02:13;;;;;;;;;;;18.60;99.90;;;;;;5025310;28;19917;-66
2021/07/18 05:04:39;;;;;;;;;;;18.70;99.90;;;;;;5033319;28;20320;-66
2021/07/18 05:07:08;;;;;;;;;;;18.70;99.90;;;;;;5033070;28;20408;-66
2021/07/18 05:09:33;;;;;;;;;;;18.70;99.90;;;;;;5033374;28;20364;-66
2021/07/18 05:11:58;;;;;;;;;;;18.70;99.90;;;;;;5035633;28;19909;-66
2021/07/18 05:14:24;;;;;;;;;;;18.80;99.90;;;;;;5052822;28;19940;-66
2021/07/18 05:16:49;;;;;;;;;;;18.90;99.90;;;;;;5052563;28;20364;-66
2021/07/18 05:19:32;;;;;;;;;;;18.90;99.90;;;;;;5050901;28;20289;-66
2021/07/18 05:21:58;;;;;;;;;;;19.00;99.90;;;;;;5052908;28;19909;-66
2021/07/18 05:24:24;;;;;;;;;;;18.90;99.90;;;;;;5052503;28;19912;-66
2021/07/18 05:26:49;;;;;;;;;;;19.00;99.90;;;;;;5035248;28;19961;-66
2021/07/18 05:29:15;;;;;;;;;;;19.00;99.90;;;;;;5047701;28;20247;-66
2021/07/18 05:31:40;;;;;;;;;;;19.10;99.90;;;;;;5044034;28;19912;-66
2021/07/18 05:34:08;;;;;;;;;;;19.10;99.90;;;;;;5040038;28;20399;-66
2021/07/18 05:36:33;;;;;;;;;;;19.20;99.90;;;;;;5047348;28;19929;-65
2021/07/18 05:39:08;;;;;;;;;;;19.20;99.90;;;;;;5051200;28;19931;-66
2021/07/18 05:41:33;;;;;;;;;;;19.30;99.90;;;;;;5052221;28;19912;-66
2021/07/18 05:43:58;;;;;;;;;;;19.40;99.90;;;;;;5051879;28;19974;-66
2021/07/18 05:46:24;;;;;;;;;;;19.40;99.90;;;;;;5047272;28;19912;-65
2021/07/18 05:48:49;;;;;;;;;;;19.50;99.90;;;;;;5052234;28;19904;-66
2021/07/18 05:51:15;;;;;;;;;;;19.40;99.90;;;;;;5048424;28;19912;-66
2021/07/18 05:53:41;;;;;;;;;;;19.50;99.90;;;;;;5032145;28;19975;-66
2021/07/18 05:56:07;;;;;;;;;;;19.50;99.90;;;;;;5032145;28;19916;-66
2021/07/18 05:58:35;;;;;;;;;;;19.50;99.90;;;;;;5032473;28;19905;-66
2021/07/18 06:01:01;;;;;;;;;;;19.70;99.90;;;;;;5014425;28;19999;-66
2021/07/18 06:03:26;;;;;;;;;;;19.60;99.90;;;;;;5029730;28;20337;-66
2021/07/18 06:05:51;;;;;;;;;;;19.70;99.90;;;;;;5005774;28;19912;-66
2021/07/18 06:08:17;;;;;;;;;;;19.70;99.90;;;;;;5036453;28;19915;-67
2021/07/18 06:10:42;;;;;;;;;;;19.80;99.90;;;;;;5046329;28;19909;-66
2021/07/18 06:13:08;;;;;;;;;;;19.80;99.90;;;;;;5027385;28;19970;-66
2021/07/18 06:15:33;;;;;;;;;;;19.90;99.90;;;;;;5054667;28;19971;-66
2021/07/18 06:17:59;;;;;;;;;;;19.90;99.90;;;;;;5034450;28;19912;-66
2021/07/18 06:20:24;;;;;;;;;;;20.00;99.90;;;;;;5047454;28;19909;-66
2021/07/18 06:22:52;;;;;;;;;;;20.10;99.90;;;;;;5051386;28;20352;-67
2021/07/18 06:25:18;;;;;;;;;;;20.10;99.90;;;;;;5043791;28;19920;-66
2021/07/18 06:27:46;;;;;;;;;;;20.10;99.90;;;;;;5049321;28;19909;-66
2021/07/18 06:30:12;;;;;;;;;;;20.10;99.90;;;;;;5041177;28;19912;-66
2021/07/18 06:32:38;;;;;;;;;;;20.20;99.90;;;;;;5051601;28;19912;-66
2021/07/18 06:35:03;;;;;;;;;;;20.20;99.90;;;;;;5051237;28;19992;-66
2021/07/18 06:37:29;;;;;;;;;;;20.20;99.90;;;;;;5033596;28;20007;-66
2021/07/18 06:39:54;;;;;;;;;;;20.20;99.90;;;;;;5049410;28;19909;-66
2021/07/18 06:42:20;;;;;;;;;;;20.30;99.90;;;;;;5032888;28;19912;-66
2021/07/18 06:44:46;;;;;;;;;;;20.40;99.90;;;;;;5051004;28;19916;-66
2021/07/18 06:47:11;;;;;;;;;;;20.50;99.90;;;;;;5049754;28;20062;-66
2021/07/18 06:49:37;;;;;;;;;;;20.60;99.90;;;;;;5048462;28;19911;-66
2021/07/18 06:52:02;;;;;;;;;;;20.60;99.90;;;;;;5045258;28;19906;-66
2021/07/18 06:54:28;;;;;;;;;;;20.60;99.90;;;;;;5048062;28;19909;-66
2021/07/18 06:56:56;;;;;;;;;;;20.60;99.90;;;;;;5050002;28;19909;-66
2021/07/18 06:59:21;;;;;;;;;;;20.60;99.90;;;;;;5033118;28;19904;-66
2021/07/18 07:01:47;;;;;;;;;;;20.70;99.90;;;;;;5051205;28;19905;-66
2021/07/18 07:04:12;;;;;;;;;;;20.70;99.90;;;;;;5038231;28;19962;-66
2021/07/18 07:06:38;;;;;;;;;;;20.80;99.90;;;;;;5050607;28;19915;-66
2021/07/18 07:09:03;;;;;;;;;;;20.80;99.90;;;;;;5044309;28;20004;-66
2021/07/18 07:11:28;;;;;;;;;;;20.90;99.90;;;;;;5050462;28;19913;-66
2021/07/18 07:13:54;;;;;;;;;;;21.00;99.90;;;;;;5050394;28;20360;-66
2021/07/18 07:16:20;;;;;;;;;;;21.00;99.90;;;;;;5049281;28;19909;-66
2021/07/18 07:18:46;;;;;;;;;;;21.10;99.90;;;;;;5050410;28;19908;-66
2021/07/18 07:21:13;;;;;;;;;;;21.00;99.90;;;;;;5043311;28;19909;-66
2021/07/18 07:23:38;;;;;;;;;;;21.10;99.90;;;;;;5049801;28;19948;-66
2021/07/18 07:26:05;;;;;;;;;;;21.20;99.90;;;;;;5044114;28;19905;-66
2021/07/18 07:28:30;;;;;;;;;;;21.30;99.90;;;;;;5032674;28;20277;-66
2021/07/18 07:30:58;;;;;;;;;;;21.20;99.90;;;;;;5045237;28;19913;-67
2021/07/18 07:33:24;;;;;;;;;;;21.10;99.90;;;;;;5031935;28;19909;-66
2021/07/18 07:35:51;;;;;;;;;;;21.00;99.90;;;;;;5044898;28;20280;-66
2021/07/18 07:38:16;;;;;;;;;;;21.00;99.90;;;;;;5028552;28;19924;-66
2021/07/18 07:40:42;;;;;;;;;;;21.20;99.90;;;;;;5049963;28;19963;-66
2021/07/18 07:43:07;;;;;;;;;;;21.40;99.90;;;;;;5047695;28;19921;-66
2021/07/18 07:45:33;;;;;;;;;;;21.40;99.90;;;;;;5045237;28;20376;-66
2021/07/18 07:47:59;;;;;;;;;;;21.40;99.90;;;;;;5048222;28;19992;-66
2021/07/18 07:50:24;;;;;;;;;;;21.50;99.90;;;;;;5050022;28;19958;-66
2021/07/18 07:52:50;;;;;;;;;;;21.60;99.90;;;;;;5031941;28;20407;-66
2021/07/18 07:55:15;;;;;;;;;;;21.70;99.90;;;;;;5048201;28;20277;-66
2021/07/18 07:57:41;;;;;;;;;;;21.80;99.90;;;;;;5042505;28;19951;-66
2021/07/18 08:00:10;;;;;;;;;;;22.00;99.90;;;;;;5049958;28;19958;-66
2021/07/18 08:02:35;;;;;;;;;;;22.00;99.90;;;;;;5050247;28;19994;-66
2021/07/18 08:05:01;;;;;;;;;;;22.10;99.90;;;;;;5050151;28;19972;-66
2021/07/18 08:07:26;;;;;;;;;;;22.00;99.90;;;;;;5044099;28;19982;-66
2021/07/18 08:09:52;;;;;;;;;;;22.00;99.90;;;;;;5037927;28;20416;-67
2021/07/18 08:12:17;;;;;;;;;;;22.00;99.90;;;;;;5030669;28;19917;-66
2021/07/18 08:14:43;;;;;;;;;;;22.10;99.90;;;;;;5030302;28;19916;-66
2021/07/18 08:17:08;;;;;;;;;;;22.20;99.90;;;;;;5036220;28;20003;-67
2021/07/18 08:19:34;;;;;;;;;;;22.20;99.90;;;;;;5049712;28;20352;-66
2021/07/18 08:21:59;;;;;;;;;;;22.30;99.90;;;;;;5047142;28;20266;-66
2021/07/18 08:24:25;;;;;;;;;;;22.40;99.90;;;;;;5048808;28;19915;-67
2021/07/18 08:26:51;;;;;;;;;;;22.30;99.90;;;;;;5050323;28;20296;-67
2021/07/18 08:29:16;;;;;;;;;;;22.40;99.90;;;;;;5053003;28;19911;-66
2021/07/18 08:31:41;;;;;;;;;;;22.50;99.90;;;;;;5053750;28;19904;-67
2021/07/18 08:34:07;;;;;;;;;;;22.40;99.90;;;;;;5047096;28;19909;-66
2021/07/18 08:36:32;;;;;;;;;;;22.60;99.90;;;;;;5052945;28;20345;-66
2021/07/18 08:38:58;;;;;;;;;;;22.60;99.90;;;;;;5033599;28;19913;-67
2021/07/18 08:41:23;;;;;;;;;;;22.70;99.90;;;;;;5053519;28;20000;-66
2021/07/18 08:43:50;;;;;;;;;;;22.80;99.90;;;;;;5046321;28;20389;-67
2021/07/18 08:46:18;;;;;;;;;;;22.80;99.90;;;;;;5035700;28;19904;-66
2021/07/18 08:48:44;;;;;;;;;;;22.90;99.90;;;;;;5052455;28;20372;-66
2021/07/18 08:51:10;;;;;;;;;;;23.00;99.90;;;;;;5046940;28;19915;-66
2021/07/18 08:53:36;;;;;;;;;;;23.10;99.90;;;;;;5049683;28;19909;-66
2021/07/18 08:56:01;;;;;;;;;;;23.20;99.90;;;;;;5053670;28;19912;-66
2021/07/18 08:58:27;;;;;;;;;;;23.20;99.90;;;;;;5053601;28;19951;-66
2021/07/18 09:00:52;;;;;;;;;;;23.20;99.90;;;;;;5036150;28;19912;-66
2021/07/18 09:03:18;;;;;;;;;;;23.10;99.90;;;;;;5049630;28;19917;-67
2021/07/18 09:05:44;;;;;;;;;;;23.30;99.90;;;;;;5052074;28;20425;-67
2021/07/18 09:08:16;;;;;;;;;;;23.40;99.90;;;;;;5048350;28;19916;-66
2021/07/18 09:10:44;;;;;;;;;;;23.60;99.90;;;;;;5045574;28;19909;-67
2021/07/18 09:13:11;;;;;;;;;;;23.70;99.90;;;;;;5052444;28;19908;-67
2021/07/18 09:15:44;;;;;;;;;;;23.80;99.90;;;;;;5034426;28;19917;-66
2021/07/18 09:18:11;;;;;;;;;;;23.80;99.90;;;;;;5049646;28;19917;-66
2021/07/18 09:20:41;;;;;;;;;;;23.80;99.90;;;;;;5034623;28;19905;-67
2021/07/18 09:23:10;;;;;;;;;;;23.70;99.90;;;;;;5052592;28;19909;-66
2021/07/18 09:25:36;;;;;;;;;;;23.80;99.90;;;;;;5052258;28;19905;-66
2021/07/18 09:28:09;;;;;;;;;;;23.80;99.90;;;;;;5047718;28;19929;-67
2021/07/18 09:30:35;;;;;;;;;;;23.70;99.90;;;;;;5052504;28;19948;-67
2021/07/18 09:33:00;;;;;;;;;;;23.90;99.90;;;;;;5053130;28;20273;-66
2021/07/18 09:35:27;;;;;;;;;;;24.00;99.90;;;;;;5053235;28;19927;-66
2021/07/18 09:37:55;;;;;;;;;;;24.00;99.90;;;;;;5043391;28;19978;-67
2021/07/18 09:40:24;;;;;;;;;;;24.00;99.90;;;;;;5049826;28;20300;-66
2021/07/18 09:42:50;;;;;;;;;;;24.10;99.90;;;;;;5052071;28;20025;-67
2021/07/18 09:45:23;;;;;;;;;;;24.30;99.90;;;;;;5052314;28;19963;-67
2021/07/18 09:47:51;;;;;;;;;;;24.40;99.90;;;;;;5048109;28;19912;-66
2021/07/18 09:50:17;;;;;;;;;;;24.30;99.90;;;;;;5052207;28;19904;-67
2021/07/18 09:52:48;;;;;;;;;;;24.20;99.90;;;;;;5052590;28;19931;-66
2021/07/18 09:55:20;;;;;;;;;;;24.20;99.90;;;;;;5048679;28;19955;-67
2021/07/18 09:57:50;;;;;;;;;;;24.30;99.90;;;;;;5049786;28;19926;-66
2021/07/18 10:00:15;;;;;;;;;;;24.20;99.90;;;;;;5047722;28;19999;-68
2021/07/18 10:02:41;;;;;;;;;;;24.20;99.90;;;;;;5048744;28;20341;-66
2021/07/18 10:05:14;;;;;;;;;;;24.30;99.90;;;;;;5048679;28;19962;-67
2021/07/18 10:07:39;;;;;;;;;;;24.30;99.90;;;;;;5043637;28;19998;-66
2021/07/18 10:10:05;;;;;;;;;;;24.40;99.90;;;;;;5032815;28;20529;-67
2021/07/18 10:12:31;;;;;;;;;;;24.60;99.90;;;;;;5032309;28;19905;-67
2021/07/18 10:14:58;;;;;;;;;;;24.60;99.90;;;;;;5032230;28;19963;-67
2021/07/18 10:17:24;;;;;;;;;;;24.60;99.90;;;;;;5038105;28;19912;-66
2021/07/18 10:19:52;;;;;;;;;;;24.60;99.90;;;;;;5051198;28;19970;-67
2021/07/18 10:22:18;;;;;;;;;;;24.60;99.90;;;;;;5046876;28;19913;-67
2021/07/18 10:24:44;;;;;;;;;;;24.70;99.90;;;;;;5032672;28;19935;-66
2021/07/18 10:27:12;;;;;;;;;;;24.80;99.90;;;;;;5034121;28;20233;-66
2021/07/18 10:29:38;;;;;;;;;;;24.80;99.90;;;;;;5051411;28;19905;-67
2021/07/18 10:32:07;;;;;;;;;;;24.60;99.90;;;;;;5050212;28;20000;-66
2021/07/18 10:34:35;;;;;;;;;;;24.60;99.90;;;;;;5046782;28;20308;-67
2021/07/18 10:37:11;;;;;;;;;;;24.70;99.90;;;;;;5034345;28;19913;-67
2021/07/18 10:39:40;;;;;;;;;;;24.70;99.90;;;;;;5034262;28;19916;-67
2021/07/18 10:42:12;;;;;;;;;;;24.80;99.90;;;;;;5064905;22;19920;-67
2021/07/18 10:44:39;;;;;;;;;;;24.90;99.90;;;;;;5050818;28;20368;-68
2021/07/18 10:47:04;;;;;;;;;;;24.90;99.90;;;;;;5050975;28;19920;-67
2021/07/18 10:49:48;;;;;;;;;;;24.90;99.90;;;;;;5031621;28;20319;-68
2021/07/18 10:52:14;;;;;;;;;;;24.90;99.90;;;;;;5046723;28;19913;-68
2021/07/18 10:54:43;;;;;;;;;;;24.90;99.90;;;;;;5050168;28;19958;-68
2021/07/18 10:57:22;;;;;;;;;;;24.90;99.90;;;;;;5028315;28;20436;-68
2021/07/18 10:59:48;;;;;;;;;;;25.00;99.90;;;;;;5050712;28;19991;-68
2021/07/18 11:02:18;;;;;;;;;;;25.10;99.90;;;;;;5045662;28;20016;-68
2021/07/18 11:04:43;;;;;;;;;;;25.10;99.90;;;;;;5043766;28;19909;-68
2021/07/18 11:07:21;;;;;;;;;;;25.10;99.90;;;;;;5048988;28;20339;-67
2021/07/18 11:09:48;;;;;;;;;;;25.20;99.90;;;;;;5050314;28;20376;-68
2021/07/18 11:12:35;;;;;;;;;;;25.20;99.90;;;;;;5044467;28;19908;-67
2021/07/18 11:15:15;;;;;;;;;;;25.30;99.90;;;;;;5050181;28;20278;-67
2021/07/18 11:17:59;;;;;;;;;;;25.30;99.90;;;;;;5033134;28;19959;-68
2021/07/18 11:20:44;;;;;;;;;;;25.40;99.90;;;;;;5027577;28;20125;-67
2021/07/18 11:23:17;;;;;;;;;;;25.50;99.90;;;;;;5048302;28;19971;-67
2021/07/18 11:25:49;;;;;;;;;;;25.50;99.90;;;;;;5050532;28;19920;-67
2021/07/18 11:28:30;;;;;;;;;;;25.40;99.90;;;;;;5044408;28;19904;-67
2021/07/18 11:31:11;;;;;;;;;;;25.50;99.90;;;;;;5048834;28;19966;-67
2021/07/18 11:33:52;;;;;;;;;;;25.60;99.90;;;;;;5049997;28;19905;-67
2021/07/18 11:36:21;;;;;;;;;;;25.70;99.90;;;;;;5049677;28;19908;-67
2021/07/18 11:38:48;;;;;;;;;;;25.80;99.90;;;;;;5047487;28;20317;-68
2021/07/18 11:41:21;;;;;;;;;;;25.80;99.90;;;;;;5046544;28;19935;-67
2021/07/18 11:43:47;;;;;;;;;;;25.60;99.90;;;;;;5044070;28;19908;-68
2021/07/18 11:46:16;;;;;;;;;;;25.60;99.90;;;;;;5031710;28;20046;-68
2021/07/18 11:48:45;;;;;;;;;;;25.60;99.90;;;;;;5048831;28;20037;-67
2021/07/18 11:51:14;;;;;;;;;;;25.70;99.90;;;;;;5042946;28;19923;-68
2021/07/18 11:53:46;;;;;;;;;;;25.80;99.90;;;;;;5032239;28;20275;-67
2021/07/18 11:56:31;;;;;;;;;;;25.90;99.90;;;;;;5043642;28;19909;-68
2021/07/18 11:59:02;;;;;;;;;;;26.00;99.90;;;;;;5028867;28;19958;-68
2021/07/18 12:01:28;;;;;;;;;;;26.10;99.90;;;;;;5044915;28;19905;-68
2021/07/18 12:03:54;;;;;;;;;;;26.10;99.90;;;;;;5035327;28;19931;-68
2021/07/18 12:06:20;;;;;;;;;;;26.20;99.90;;;;;;5035598;28;19908;-67
2021/07/18 12:08:46;;;;;;;;;;;26.10;99.90;;;;;;5054265;28;20225;-67
2021/07/18 12:11:13;;;;;;;;;;;26.00;99.90;;;;;;5054002;28;19971;-68
2021/07/18 12:13:39;;;;;;;;;;;26.00;99.90;;;;;;5046145;28;19991;-67
2021/07/18 12:16:05;;;;;;;;;;;26.00;99.90;;;;;;5051050;28;20027;-68
2021/07/18 12:18:31;;;;;;;;;;;26.20;99.90;;;;;;5035248;28;20377;-68
2021/07/18 12:21:13;;;;;;;;;;;26.20;99.90;;;;;;5054258;28;19913;-67
2021/07/18 12:23:39;;;;;;;;;;;26.30;99.90;;;;;;5048223;28;20300;-68
2021/07/18 12:26:04;;;;;;;;;;;26.40;99.90;;;;;;5054124;28;19949;-68
2021/07/18 12:28:30;;;;;;;;;;;26.50;99.90;;;;;;5053839;28;19912;-67
2021/07/18 12:30:55;;;;;;;;;;;26.70;99.90;;;;;;5048940;28;20261;-68
2021/07/18 12:33:21;;;;;;;;;;;26.90;99.90;;;;;;5051748;28;20331;-68
2021/07/18 12:35:58;;;;;;;;;;;27.10;99.90;;;;;;5053427;28;19950;-68
2021/07/18 12:38:24;;;;;;;;;;;27.30;99.90;;;;;;5035823;28;19932;-68
2021/07/18 12:40:49;;;;;;;;;;;27.40;99.90;;;;;;5032524;28;19909;-68
2021/07/18 12:43:15;;;;;;;;;;;27.50;99.90;;;;;;5052819;28;19912;-68
2021/07/18 12:45:40;;;;;;;;;;;27.50;99.90;;;;;;5052509;28;20007;-68
2021/07/18 12:48:10;;;;;;;;;;;27.60;99.90;;;;;;5035444;28;20299;-68
2021/07/18 12:50:36;;;;;;;;;;;27.80;99.90;;;;;;5042082;28;20154;-68
2021/07/18 12:53:12;;;;;;;;;;;27.90;99.90;;;;;;5034434;28;20390;-68
2021/07/18 12:55:41;;;;;;;;;;;27.90;99.90;;;;;;5053289;28;19905;-68
2021/07/18 12:58:29;;;;;;;;;;;27.90;99.90;;;;;;5050033;28;19908;-68
2021/07/18 13:00:58;;;;;;;;;;;28.00;99.90;;;;;;5039810;28;20291;-68
2021/07/18 13:03:24;;;;;;;;;;;27.90;99.90;;;;;;5034180;28;19982;-67
2021/07/18 13:05:49;;;;;;;;;;;27.90;99.90;;;;;;5053059;28;20412;-68
2021/07/18 13:08:41;;;;;;;;;;;27.70;99.90;;;;;;5051288;28;19905;-68
2021/07/18 13:11:26;;;;;;;;;;;27.60;99.90;;;;;;5045241;28;20010;-68
2021/07/18 13:13:51;;;;;;;;;;;27.40;99.90;;;;;;5047511;28;19912;-68
2021/07/18 13:16:17;;;;;;;;;;;27.20;99.90;;;;;;5049181;28;19928;-68
2021/07/18 13:18:47;;;;;;;;;;;27.00;99.90;;;;;;5050498;28;19908;-68
2021/07/18 13:21:14;;;;;;;;;;;26.90;99.90;;;;;;5034345;28;19905;-68
2021/07/18 13:23:43;;;;;;;;;;;26.80;99.90;;;;;;5051690;28;19912;-67
2021/07/18 13:26:29;;;;;;;;;;;26.90;99.90;;;;;;5048054;28;19916;-68
2021/07/18 13:29:10;;;;;;;;;;;26.80;99.90;;;;;;5043063;28;19908;-68
2021/07/18 13:31:35;;;;;;;;;;;26.80;99.90;;;;;;5050747;28;19924;-67
2021/07/18 13:34:04;;;;;;;;;;;26.70;99.90;;;;;;5044761;28;19905;-67
2021/07/18 13:36:32;;;;;;;;;;;26.60;99.90;;;;;;5051493;28;19976;-68
2021/07/18 13:39:07;;;;;;;;;;;26.50;99.90;;;;;;5046785;28;19988;-67
2021/07/18 13:41:33;;;;;;;;;;;26.50;99.90;;;;;;5019205;28;20331;-67
2021/07/18 13:43:58;;;;;;;;;;;26.60;99.90;;;;;;5033118;28;19909;-68
2021/07/18 13:46:24;;;;;;;;;;;26.80;99.90;;;;;;5052406;28;19908;-68
2021/07/18 13:48:49;;;;;;;;;;;26.90;99.90;;;;;;5033838;28;19963;-68
2021/07/18 13:51:17;;;;;;;;;;;26.80;99.90;;;;;;5036950;28;20318;-68
2021/07/18 13:53:42;;;;;;;;;;;26.80;99.90;;;;;;5045872;28;19905;-68
2021/07/18 13:56:08;;;;;;;;;;;26.80;99.90;;;;;;5045760;28;19940;-67
2021/07/18 13:58:33;;;;;;;;;;;26.70;99.90;;;;;;5044273;28;19956;-67
2021/07/18 14:01:01;;;;;;;;;;;26.70;99.90;;;;;;5051290;28;20281;-68
2021/07/18 14:03:26;;;;;;;;;;;26.70;99.90;;;;;;5051121;28;20388;-68
2021/07/18 14:05:52;;;;;;;;;;;26.60;99.90;;;;;;5048387;28;19984;-68
2021/07/18 14:08:17;;;;;;;;;;;26.70;99.90;;;;;;5020974;28;19913;-68
2021/07/18 14:10:44;;;;;;;;;;;26.90;99.90;;;;;;5050075;28;20255;-68
2021/07/18 14:13:10;;;;;;;;;;;26.90;99.90;;;;;;5050239;28;20086;-67
2021/07/18 14:15:38;;;;;;;;;;;27.00;99.90;;;;;;5049153;28;20347;-68
2021/07/18 14:18:03;;;;;;;;;;;27.00;99.90;;;;;;5049566;28;19979;-70